Time;durP1;ratioP1;P1;durP2;ratioP2;P2;SDS_P1;SDS_P2;PMS_P1;PMS_P2;Temp;Humidity;BMP_temperature;BMP_pressure;BME280_temperature;BME280_humidity;BME280_pressure;Samples;Min_cycle;Max_cycle;Signal;HPM_P1;HPM_P2
2023/05/20 00:00:27;;;;;;;6.83;4.63;;;;;;;11.79;100.00;98270.34;5057189;28;20210;-75
2023/05/20 00:02:54;;;;;;;6.17;4.80;;;;;;;11.94;100.00;98263.09;5057437;28;20231;-75
2023/05/20 00:05:20;;;;;;;6.40;4.80;;;;;;;12.04;99.84;98266.78;5057322;28;20204;-76
2023/05/20 00:07:47;;;;;;;5.40;4.40;;;;;;;12.18;98.76;98269.25;5058485;28;20241;-75
2023/05/20 00:10:13;;;;;;;5.17;4.40;;;;;;;12.19;98.33;98273.59;5058505;28;20203;-75
2023/05/20 00:12:41;;;;;;;6.00;4.67;;;;;;;12.23;98.16;98269.78;5065557;28;20249;-75
2023/05/20 00:15:10;;;;;;;5.67;4.57;;;;;;;12.20;97.45;98256.72;5067988;28;20214;-75
2023/05/20 00:17:37;;;;;;;5.90;5.30;;;;;;;12.14;97.98;98263.34;5066670;28;20228;-75
2023/05/20 00:20:04;;;;;;;6.03;5.07;;;;;;;12.12;98.34;98261.75;5067232;28;20302;-75
2023/05/20 00:22:31;;;;;;;7.23;4.93;;;;;;;12.25;97.89;98262.53;5066730;28;20336;-75
2023/05/20 00:24:57;;;;;;;6.73;4.63;;;;;;;12.24;98.12;98256.38;5065873;28;20215;-75
2023/05/20 00:27:24;;;;;;;5.63;4.87;;;;;;;12.28;97.87;98252.56;5069280;28;20220;-75
2023/05/20 00:29:52;;;;;;;6.37;4.53;;;;;;;12.19;98.18;98257.69;5069725;28;20209;-74
2023/05/20 00:32:18;;;;;;;4.77;4.30;;;;;;;12.13;98.94;98259.00;5069692;28;20224;-75
2023/05/20 00:34:45;;;;;;;4.93;4.30;;;;;;;12.14;99.82;98262.47;5063080;28;20208;-76
2023/05/20 00:37:11;;;;;;;6.17;4.57;;;;;;;12.23;98.77;98257.34;5059993;28;20206;-75
2023/05/20 00:39:37;;;;;;;5.47;4.93;;;;;;;12.29;98.65;98248.94;5069932;28;20228;-76
2023/05/20 00:42:04;;;;;;;5.60;4.70;;;;;;;12.35;97.71;98248.50;5070476;28;20205;-76
2023/05/20 00:44:31;;;;;;;6.23;4.73;;;;;;;12.42;97.61;98254.19;5069238;28;20208;-75
2023/05/20 00:46:58;;;;;;;6.10;4.90;;;;;;;12.49;97.28;98252.78;5069973;28;20216;-75
2023/05/20 00:49:25;;;;;;;4.83;4.33;;;;;;;12.55;96.53;98250.53;5069338;28;20228;-75
2023/05/20 00:51:52;;;;;;;6.17;4.43;;;;;;;12.66;96.01;98253.19;5069259;28;20236;-76
2023/05/20 00:54:19;;;;;;;5.87;4.40;;;;;;;12.74;95.25;98242.00;5055114;28;20223;-75
2023/05/20 00:56:46;;;;;;;4.87;3.90;;;;;;;12.75;95.03;98238.38;5055323;28;20868;-75
2023/05/20 00:59:12;;;;;;;4.73;4.10;;;;;;;12.78;95.04;98251.44;5054338;28;20326;-76
2023/05/20 01:01:39;;;;;;;4.50;4.10;;;;;;;12.83;95.28;98243.97;5055261;28;20206;-75
2023/05/20 01:04:07;;;;;;;6.57;4.30;;;;;;;12.75;95.18;98239.25;5056117;28;20209;-74
2023/05/20 01:06:33;;;;;;;4.57;4.10;;;;;;;12.69;95.81;98238.84;5058109;28;20587;-75
2023/05/20 01:09:00;;;;;;;4.83;4.30;;;;;;;12.70;95.72;98243.19;5055207;28;20832;-75
2023/05/20 01:11:31;;;;;;;4.70;4.07;;;;;;;12.78;95.38;98235.50;5055171;28;20594;-75
2023/05/20 01:14:03;;;;;;;6.47;4.13;;;;;;;12.80;94.54;98236.22;5055103;28;20214;-75
2023/05/20 01:16:32;;;;;;;4.77;4.10;;;;;;;12.79;94.91;98234.56;5055184;28;20211;-75
2023/05/20 01:19:02;;;;;;;4.43;3.80;;;;;;;12.77;95.25;98232.00;5054810;28;20304;-75
2023/05/20 01:21:32;;;;;;;5.27;4.20;;;;;;;12.89;94.11;98227.59;5054039;28;20266;-75
2023/05/20 01:24:00;;;;;;;4.17;3.50;;;;;;;12.82;94.24;98226.34;5052939;28;20214;-75
2023/05/20 01:26:27;;;;;;;4.57;4.00;;;;;;;12.85;94.46;98232.25;5052911;28;20682;-75
2023/05/20 01:28:56;;;;;;;4.60;4.13;;;;;;;12.80;94.34;98229.13;5052693;28;20259;-75
2023/05/20 01:31:26;;;;;;;6.33;4.07;;;;;;;12.79;95.26;98234.56;5052420;28;20214;-75
2023/05/20 01:33:56;;;;;;;4.03;3.67;;;;;;;12.78;95.38;98228.38;5052832;28;20215;-75
2023/05/20 01:36:25;;;;;;;5.23;4.47;;;;;;;12.80;94.90;98228.28;5052452;28;20208;-75
2023/05/20 01:38:54;;;;;;;4.90;3.93;;;;;;;12.83;94.92;98218.28;5052355;28;20261;-75
2023/05/20 01:41:24;;;;;;;4.63;4.10;;;;;;;12.76;95.04;98226.81;5052480;28;20220;-75
2023/05/20 01:43:51;;;;;;;5.70;4.40;;;;;;;12.76;95.32;98221.50;5052482;28;20211;-75
2023/05/20 01:46:17;;;;;;;5.63;4.33;;;;;;;12.70;95.85;98221.97;5052564;28;20259;-75
2023/05/20 01:48:44;;;;;;;4.30;3.67;;;;;;;12.67;95.63;98222.22;5052468;28;20233;-75
2023/05/20 01:51:11;;;;;;;4.37;3.97;;;;;;;12.62;96.10;98225.22;5051997;28;20210;-76
2023/05/20 01:53:37;;;;;;;4.67;4.00;;;;;;;12.59;97.17;98224.63;5052147;28;20718;-75
2023/05/20 01:56:05;;;;;;;6.27;4.27;;;;;;;12.66;96.87;98225.84;5052462;28;20212;-75
2023/05/20 01:58:33;;;;;;;6.60;4.30;;;;;;;12.62;97.37;98227.03;5052000;28;20235;-76
2023/05/20 02:01:00;;;;;;;4.70;4.30;;;;;;;12.68;96.62;98224.75;5051803;28;20219;-75
2023/05/20 02:03:26;;;;;;;4.73;4.00;;;;;;;12.67;96.74;98224.88;5052233;28;20300;-75
2023/05/20 02:05:53;;;;;;;5.30;4.13;;;;;;;12.64;96.56;98222.44;5052064;28;20304;-75
2023/05/20 02:08:19;;;;;;;4.63;3.97;;;;;;;12.60;96.60;98227.13;5051957;28;20237;-75
2023/05/20 02:10:48;;;;;;;5.90;4.33;;;;;;;12.55;96.97;98228.44;5051868;28;20210;-75
2023/05/20 02:13:14;;;;;;;5.77;4.57;;;;;;;12.50;97.88;98220.00;5051900;28;20226;-75
2023/05/20 02:15:42;;;;;;;6.67;4.30;;;;;;;12.45;97.66;98216.84;5052069;28;20287;-75
2023/05/20 02:18:11;;;;;;;5.00;4.20;;;;;;;12.48;97.80;98219.28;5051815;28;20333;-75
2023/05/20 02:20:37;;;;;;;5.20;3.97;;;;;;;12.39;98.64;98217.31;5051531;28;20672;-75
2023/05/20 02:23:04;;;;;;;5.50;3.90;;;;;;;12.28;99.30;98215.47;5052339;28;20209;-75
2023/05/20 02:25:31;;;;;;;5.60;4.23;;;;;;;12.26;100.00;98219.19;5053996;28;20261;-75
2023/05/20 02:27:57;;;;;;;4.70;4.10;;;;;;;12.15;100.00;98216.47;5053970;28;20226;-75
2023/05/20 02:30:24;;;;;;;4.60;4.00;;;;;;;12.19;100.00;98215.31;5053768;28;20220;-75
2023/05/20 02:32:52;;;;;;;5.07;4.00;;;;;;;12.24;100.00;98213.16;5053786;28;20273;-76
2023/05/20 02:35:18;;;;;;;6.00;4.60;;;;;;;12.20;100.00;98217.84;5053313;28;20209;-75
2023/05/20 02:37:45;;;;;;;4.40;4.00;;;;;;;12.22;100.00;98223.03;5053653;28;20264;-76
2023/05/20 02:40:12;;;;;;;5.10;4.60;;;;;;;12.26;100.00;98216.53;5055999;28;20216;-75
2023/05/20 02:42:38;;;;;;;7.10;4.27;;;;;;;12.30;100.00;98218.00;5067992;28;20218;-75
2023/05/20 02:45:06;;;;;;;6.27;4.40;;;;;;;12.30;100.00;98224.13;5074931;28;20196;-74
2023/05/20 02:47:32;;;;;;;9.30;4.87;;;;;;;12.24;100.00;98218.47;5074642;28;20206;-74
2023/05/20 02:50:00;;;;;;;4.67;4.20;;;;;;;12.20;100.00;98214.34;5074840;28;20199;-76
2023/05/20 02:52:27;;;;;;;4.83;4.00;;;;;;;12.09;100.00;98211.63;5075361;28;20236;-74
2023/05/20 02:54:53;;;;;;;5.17;4.67;;;;;;;12.06;100.00;98222.47;5075061;28;20273;-74
2023/05/20 02:57:20;;;;;;;4.80;4.40;;;;;;;12.06;100.00;98220.69;5062305;28;20212;-75
2023/05/20 02:59:46;;;;;;;5.80;4.47;;;;;;;12.01;100.00;98222.81;5053190;28;20244;-75
2023/05/20 03:02:13;;;;;;;5.73;4.80;;;;;;;11.97;100.00;98231.94;5053571;28;20216;-75
2023/05/20 03:04:39;;;;;;;5.97;4.70;;;;;;;11.95;100.00;98227.69;5053302;28;20206;-75
2023/05/20 03:07:07;;;;;;;4.93;4.47;;;;;;;11.95;100.00;98238.31;5053051;28;20212;-75
2023/05/20 03:09:34;;;;;;;4.53;4.07;;;;;;;11.94;100.00;98228.66;5060887;28;20299;-75
2023/05/20 03:12:01;;;;;;;4.90;4.40;;;;;;;11.88;100.00;98232.63;5058577;28;20669;-75
2023/05/20 03:14:27;;;;;;;4.87;4.43;;;;;;;11.89;100.00;98233.44;5057074;28;20215;-75
2023/05/20 03:16:55;;;;;;;5.73;4.67;;;;;;;11.88;100.00;98231.75;5054635;28;20212;-75
2023/05/20 03:19:21;;;;;;;6.13;4.80;;;;;;;11.91;100.00;98232.38;5080649;22;20538;-80
2023/05/20 03:21:49;;;;;;;5.10;4.37;;;;;;;11.84;100.00;98232.94;5071143;28;20208;-80
2023/05/20 03:24:17;;;;;;;5.53;4.97;;;;;;;11.86;100.00;98238.97;5070868;28;20211;-79
2023/05/20 03:26:45;;;;;;;6.97;5.20;;;;;;;11.77;100.00;98224.59;5071333;28;20207;-79
2023/05/20 03:29:11;;;;;;;5.43;4.73;;;;;;;11.77;100.00;98229.03;5070738;28;20791;-80
2023/05/20 03:31:38;;;;;;;4.70;4.30;;;;;;;11.75;100.00;98223.03;5071024;28;20207;-79
2023/05/20 03:34:05;;;;;;;6.37;4.60;;;;;;;11.74;100.00;98226.63;5070948;28;20323;-79
2023/05/20 03:36:31;;;;;;;5.30;4.80;;;;;;;11.67;100.00;98225.38;5071194;28;20249;-79
2023/05/20 03:38:58;;;;;;;6.00;4.50;;;;;;;11.71;100.00;98221.53;5071228;28;20258;-79
2023/05/20 03:41:25;;;;;;;5.13;4.47;;;;;;;11.67;100.00;98222.75;5070998;28;20222;-79
2023/05/20 03:43:52;;;;;;;5.70;4.27;;;;;;;11.61;100.00;98221.34;5071358;28;20231;-79
2023/05/20 03:46:18;;;;;;;5.53;4.97;;;;;;;11.62;100.00;98230.16;5071665;28;20211;-79
2023/05/20 03:48:45;;;;;;;5.83;4.67;;;;;;;11.61;100.00;98229.31;5070876;28;20223;-79
2023/05/20 03:51:11;;;;;;;5.23;4.73;;;;;;;11.56;100.00;98231.38;5070575;28;20302;-79
2023/05/20 03:53:38;;;;;;;6.87;5.03;;;;;;;11.63;100.00;98237.13;5070940;28;20223;-79
2023/05/20 03:56:05;;;;;;;5.43;4.70;;;;;;;11.61;100.00;98234.59;5070960;28;20701;-79
2023/05/20 03:58:34;;;;;;;5.93;4.90;;;;;;;11.65;100.00;98237.88;5072518;28;20234;-80
2023/05/20 04:01:00;;;;;;;6.33;4.33;;;;;;;11.67;100.00;98238.63;5074666;28;20575;-79
2023/05/20 04:03:27;;;;;;;4.90;4.40;;;;;;;11.70;100.00;98244.53;5074738;28;20204;-79
2023/05/20 04:05:54;;;;;;;5.30;4.80;;;;;;;11.73;100.00;98240.84;5074367;28;20301;-79
2023/05/20 04:08:20;;;;;;;5.50;4.53;;;;;;;11.80;100.00;98234.13;5074712;28;20244;-79
2023/05/20 04:10:47;;;;;;;5.03;4.53;;;;;;;11.85;100.00;98237.25;5074230;28;20315;-80
2023/05/20 04:13:14;;;;;;;6.17;4.73;;;;;;;11.90;100.00;98235.13;5074528;28;20231;-79
2023/05/20 04:15:42;;;;;;;6.23;5.23;;;;;;;11.93;100.00;98235.75;5074308;28;20211;-79
2023/05/20 04:18:09;;;;;;;7.10;4.97;;;;;;;12.02;100.00;98235.09;5073930;28;20239;-80
2023/05/20 04:20:35;;;;;;;5.77;5.10;;;;;;;12.05;100.00;98226.09;5074412;28;20203;-80
2023/05/20 04:23:02;;;;;;;5.03;4.53;;;;;;;12.13;100.00;98226.34;5074521;28;20210;-80
2023/05/20 04:25:28;;;;;;;7.27;4.40;;;;;;;12.19;100.00;98225.91;5074442;28;20214;-79
2023/05/20 04:27:56;;;;;;;5.63;4.50;;;;;;;12.18;100.00;98224.22;5074106;28;20211;-80
2023/05/20 04:30:22;;;;;;;5.07;4.57;;;;;;;12.20;100.00;98228.44;5073766;28;20218;-80
2023/05/20 04:32:50;;;;;;;5.10;4.60;;;;;;;12.23;100.00;98217.59;5074005;28;20231;-80
2023/05/20 04:35:17;;;;;;;5.77;4.60;;;;;;;12.34;100.00;98224.78;5074355;28;20218;-79
2023/05/20 04:37:46;;;;;;;6.03;4.73;;;;;;;12.35;100.00;98216.69;5073969;28;20574;-80
2023/05/20 04:40:14;;;;;;;6.77;4.57;;;;;;;12.35;100.00;98213.22;5073889;28;20211;-79
2023/05/20 04:42:40;;;;;;;5.80;4.37;;;;;;;12.30;100.00;98210.88;5074205;28;20211;-79
2023/05/20 04:45:08;;;;;;;5.20;4.70;;;;;;;12.28;100.00;98204.88;5074082;28;20218;-79
2023/05/20 04:47:37;;;;;;;6.60;4.87;;;;;;;12.28;100.00;98206.69;5073588;28;20299;-80
2023/05/20 04:50:07;;;;;;;6.47;4.47;;;;;;;12.27;100.00;98202.31;5073477;28;20277;-80
2023/05/20 04:52:34;;;;;;;6.37;4.60;;;;;;;12.26;100.00;98206.78;5073886;28;20257;-79
2023/05/20 04:55:01;;;;;;;5.03;4.57;;;;;;;12.21;100.00;98210.72;5074197;28;20707;-80
2023/05/20 04:57:27;;;;;;;6.30;4.77;;;;;;;12.19;100.00;98215.31;5074104;28;20234;-79
2023/05/20 04:59:57;;;;;;;5.43;4.83;;;;;;;12.24;100.00;98213.16;5073787;28;20304;-80
2023/05/20 05:02:24;;;;;;;5.50;4.87;;;;;;;12.30;100.00;98212.69;5073954;28;20204;-80
2023/05/20 05:04:50;;;;;;;5.20;4.60;;;;;;;12.43;100.00;98213.47;5073733;28;20215;-80
2023/05/20 05:07:18;;;;;;;4.60;4.20;;;;;;;12.53;100.00;98212.66;5073555;28;20211;-80
2023/05/20 05:09:44;;;;;;;5.80;4.90;;;;;;;12.79;100.00;98208.03;5072414;28;20747;-79
2023/05/20 05:12:11;;;;;;;4.70;4.20;;;;;;;13.08;100.00;98206.66;5073446;28;20222;-80
2023/05/20 05:14:37;;;;;;;4.93;4.43;;;;;;;13.44;100.00;98209.06;5073734;28;20241;-80
2023/05/20 05:17:04;;;;;;;6.13;4.33;;;;;;;13.85;98.00;98198.59;5073301;28;20213;-80
2023/05/20 05:19:30;;;;;;;4.57;4.10;;;;;;;14.42;95.35;98189.38;5072837;28;20248;-80
2023/05/20 05:21:57;;;;;;;6.23;4.63;;;;;;;15.05;89.06;98173.28;5073353;28;20215;-80
2023/05/20 05:24:25;;;;;;;5.40;4.70;;;;;;;15.14;85.19;98153.81;5073081;28;20209;-80
2023/05/20 05:26:53;;;;;;;4.73;4.33;;;;;;;15.23;85.61;98165.50;5073122;28;20211;-80
2023/05/20 05:29:20;;;;;;;5.43;4.70;;;;;;;15.51;83.37;98154.16;5073229;28;20232;-80
2023/05/20 05:31:46;;;;;;;5.13;3.87;;;;;;;15.88;81.19;98147.22;5073266;28;20608;-80
2023/05/20 05:34:13;;;;;;;4.60;4.20;;;;;;;16.28;79.61;98146.94;5073097;28;20235;-80
2023/05/20 05:36:40;;;;;;;4.77;4.20;;;;;;;16.60;76.32;98131.50;5072945;28;20215;-80
2023/05/20 05:39:06;;;;;;;4.30;3.90;;;;;;;16.86;75.04;98132.56;5072748;28;20321;-80
2023/05/20 05:41:35;;;;;;;7.00;4.50;;;;;;;17.09;72.83;98123.22;5072668;28;20215;-80
2023/05/20 05:44:01;;;;;;;5.00;4.50;;;;;;;17.10;72.85;98124.03;5072806;28;20683;-80
2023/05/20 05:46:27;;;;;;;5.83;4.17;;;;;;;17.36;73.40;98136.59;5072427;28;20692;-80
2023/05/20 05:48:54;;;;;;;4.90;4.33;;;;;;;17.59;70.76;98119.19;5072392;28;20223;-80
2023/05/20 05:51:21;;;;;;;4.40;4.00;;;;;;;17.69;70.20;98122.63;5072449;28;20215;-80
2023/05/20 05:53:47;;;;;;;5.30;4.80;;;;;;;17.83;68.49;98103.44;5072340;28;20786;-80
2023/05/20 05:56:13;;;;;;;5.27;4.77;;;;;;;17.92;68.83;98107.84;5072352;28;20242;-80
2023/05/20 05:58:41;;;;;;;4.50;4.00;;;;;;;18.12;69.92;98117.44;5072130;28;20242;-80
2023/05/20 06:01:08;;;;;;;4.77;4.27;;;;;;;18.27;67.97;98104.31;5072037;28;20231;-80
2023/05/20 06:03:34;;;;;;;4.90;4.40;;;;;;;18.50;68.68;98113.59;5072442;28;20210;-80
2023/05/20 06:06:01;;;;;;;5.60;4.53;;;;;;;18.59;67.04;98107.31;5072100;28;20211;-80
2023/05/20 06:08:27;;;;;;;4.57;4.17;;;;;;;18.84;67.35;98107.31;5072055;28;20297;-80
2023/05/20 06:10:54;;;;;;;5.97;4.30;;;;;;;18.99;67.18;98105.75;5071604;28;20321;-80
2023/05/20 06:13:20;;;;;;;5.70;4.53;;;;;;;19.09;67.03;98110.97;5071828;28;20242;-80
2023/05/20 06:15:50;;;;;;;5.63;4.50;;;;;;;19.22;66.64;98111.41;5071743;28;20204;-80
2023/05/20 06:18:17;;;;;;;4.90;4.43;;;;;;;19.58;66.59;98103.00;5071417;28;20239;-80
2023/05/20 06:20:43;;;;;;;4.80;4.40;;;;;;;19.60;65.83;98106.38;5071289;28;20232;-80
2023/05/20 06:23:10;;;;;;;5.33;4.83;;;;;;;19.46;65.66;98103.47;5070968;28;20346;-80
2023/05/20 06:25:36;;;;;;;5.57;4.90;;;;;;;19.57;65.16;98101.34;5071953;28;20220;-80
2023/05/20 06:28:03;;;;;;;4.93;4.43;;;;;;;19.57;65.79;98101.34;5071829;28;20232;-80
2023/05/20 06:30:30;;;;;;;5.83;4.70;;;;;;;19.64;66.13;98101.53;5071562;28;20214;-80
2023/05/20 06:32:57;;;;;;;4.80;4.40;;;;;;;19.38;64.90;98090.88;5071697;28;20207;-80
2023/05/20 06:35:24;;;;;;;6.23;4.57;;;;;;;19.12;67.03;98106.13;5071697;28;20210;-80
2023/05/20 06:37:50;;;;;;;6.87;5.10;;;;;;;18.82;68.42;98106.63;5071510;28;20237;-80
2023/05/20 06:40:18;;;;;;;5.40;4.90;;;;;;;18.80;68.04;98097.94;5071495;28;20217;-80
2023/05/20 06:42:44;;;;;;;5.57;4.63;;;;;;;18.79;69.24;98103.44;5071486;28;20298;-81
2023/05/20 06:45:12;;;;;;;5.83;5.23;;;;;;;18.80;69.35;98097.94;5071521;28;20297;-81
2023/05/20 06:47:39;;;;;;;5.50;5.00;;;;;;;18.84;70.69;98107.31;5071594;28;20285;-80
2023/05/20 06:50:07;;;;;;;5.53;4.70;;;;;;;18.74;70.49;98114.63;5071106;28;20298;-84
2023/05/20 06:52:34;;;;;;;6.33;5.30;;;;;;;18.54;71.37;98114.97;5074250;28;20207;-83
2023/05/20 06:55:00;;;;;;;5.87;5.27;;;;;;;18.41;71.48;98112.69;5073423;28;20239;-83
2023/05/20 06:57:27;;;;;;;5.97;5.00;;;;;;;18.06;72.81;98115.38;5071409;28;20239;-83
2023/05/20 06:59:53;;;;;;;5.10;4.50;;;;;;;18.01;74.50;98114.97;5070632;28;20223;-80
2023/05/20 07:02:21;;;;;;;6.47;4.97;;;;;;;17.95;74.17;98118.25;5070946;28;20693;-80
2023/05/20 07:04:47;;;;;;;5.13;4.60;;;;;;;18.04;74.93;98120.00;5070901;28;20264;-80
2023/05/20 07:07:15;;;;;;;5.07;4.57;;;;;;;18.07;74.75;98111.69;5071160;28;20217;-80
2023/05/20 07:09:42;;;;;;;6.23;5.23;;;;;;;17.98;76.60;98114.44;5070602;28;20259;-80
2023/05/20 07:12:09;;;;;;;5.30;4.80;;;;;;;18.08;76.16;98117.88;5071168;28;20296;-80
2023/05/20 07:14:35;;;;;;;6.70;5.47;;;;;;;18.01;76.12;98114.97;5070673;28;20227;-80
2023/05/20 07:17:02;;;;;;;5.27;4.77;;;;;;;17.99;75.08;98108.09;5070845;28;20248;-79
2023/05/20 07:19:32;;;;;;;5.23;4.60;;;;;;;18.15;75.23;98111.75;5070295;28;20618;-78
2023/05/20 07:21:59;;;;;;;5.40;4.90;;;;;;;18.30;74.73;98099.50;5068623;28;20206;-78
2023/05/20 07:24:27;;;;;;;5.40;4.90;;;;;;;18.20;74.53;98098.78;5069908;28;20210;-81
2023/05/20 07:26:53;;;;;;;6.27;4.80;;;;;;;18.21;74.94;98097.78;5070896;28;20214;-77
2023/05/20 07:29:20;;;;;;;6.57;5.20;;;;;;;18.21;74.68;98087.06;5070403;28;20231;-78
2023/05/20 07:31:46;;;;;;;5.67;5.17;;;;;;;18.37;70.36;98073.88;5071000;28;20215;-79
2023/05/20 07:34:13;;;;;;;7.20;5.67;;;;;;;18.13;75.20;98091.50;5072634;28;20234;-78
2023/05/20 07:36:39;;;;;;;5.70;5.10;;;;;;;18.11;73.46;98075.59;5074452;28;20207;-77
2023/05/20 07:39:06;;;;;;;5.43;4.93;;;;;;;18.08;75.84;98083.94;5074399;28;20231;-77
2023/05/20 07:41:37;;;;;;;6.20;5.60;;;;;;;18.06;77.82;98095.78;5074311;28;20217;-77
2023/05/20 07:44:05;;;;;;;5.80;5.30;;;;;;;18.16;78.21;98096.56;5074484;28;20208;-77
2023/05/20 07:46:32;;;;;;;6.20;5.60;;;;;;;18.17;74.66;98079.50;5074437;28;20203;-78
2023/05/20 07:48:58;;;;;;;6.40;5.20;;;;;;;18.11;74.94;98080.94;5074498;28;20223;-78
2023/05/20 07:51:25;;;;;;;5.60;5.00;;;;;;;18.35;73.93;98067.00;5074136;28;20207;-78
2023/05/20 07:53:51;;;;;;;6.00;4.83;;;;;;;18.36;73.92;98068.66;5074730;28;20235;-78
2023/05/20 07:56:18;;;;;;;5.57;5.07;;;;;;;18.42;76.27;98068.84;5074409;28;20626;-78
2023/05/20 07:58:52;;;;;;;6.93;5.60;;;;;;;18.46;77.59;98075.59;5074405;28;20235;-78
2023/05/20 08:01:22;;;;;;;5.80;5.23;;;;;;;18.40;74.96;98064.69;5074142;28;20207;-79
2023/05/20 08:03:48;;;;;;;5.90;5.40;;;;;;;18.20;74.00;98057.78;5073948;28;20207;-79
2023/05/20 08:06:15;;;;;;;5.30;4.80;;;;;;;18.12;74.90;98063.94;5074262;28;20207;-78
2023/05/20 08:08:42;;;;;;;6.13;5.53;;;;;;;18.16;75.84;98067.97;5074246;28;20234;-79
2023/05/20 08:11:09;;;;;;;5.00;4.50;;;;;;;18.35;77.08;98067.81;5073897;28;20218;-77
2023/05/20 08:13:36;;;;;;;6.20;5.60;;;;;;;18.75;78.74;98076.13;5073991;28;20208;-78
2023/05/20 08:16:05;;;;;;;5.70;5.13;;;;;;;19.11;73.16;98042.84;5074434;28;20207;-78
2023/05/20 08:18:32;;;;;;;5.70;5.10;;;;;;;19.43;68.06;98032.28;5074055;28;20275;-78
2023/05/20 08:20:59;;;;;;;6.00;5.40;;;;;;;19.42;66.65;98027.06;5073853;28;20211;-78
2023/05/20 08:23:25;;;;;;;6.00;5.40;;;;;;;19.13;65.25;98019.41;5074011;28;20211;-78
2023/05/20 08:25:52;;;;;;;6.47;5.50;;;;;;;18.96;70.16;98052.47;5073870;28;20669;-78
2023/05/20 08:28:19;;;;;;;5.40;4.87;;;;;;;18.86;72.51;98077.69;5073681;28;20231;-78
2023/05/20 08:30:47;;;;;;;7.07;5.90;;;;;;;18.69;70.63;98060.69;5073658;28;20246;-79
2023/05/20 08:33:15;;;;;;;6.00;5.40;;;;;;;18.66;70.63;98052.16;5073727;28;20259;-78
2023/05/20 08:35:41;;;;;;;5.60;5.00;;;;;;;18.61;71.30;98057.97;5073182;28;20587;-81
2023/05/20 08:38:08;;;;;;;6.47;5.40;;;;;;;18.76;71.41;98051.03;5073635;28;20232;-80
2023/05/20 08:40:34;;;;;;;7.37;5.70;;;;;;;19.18;74.67;98068.00;5073338;28;20209;-81
2023/05/20 08:43:01;;;;;;;5.53;5.03;;;;;;;19.60;73.52;98074.22;5073640;28;20214;-81
2023/05/20 08:45:32;;;;;;;5.53;5.03;;;;;;;19.85;69.98;98048.28;5072587;28;20208;-81
2023/05/20 08:48:01;;;;;;;5.50;5.00;;;;;;;20.10;69.39;98050.00;5073447;28;20235;-81
2023/05/20 08:50:29;;;;;;;5.87;5.27;;;;;;;20.23;67.16;98043.13;5073081;28;20207;-80
2023/05/20 08:52:57;;;;;;;5.73;4.57;;;;;;;20.40;67.67;98052.88;5073391;28;20207;-80
2023/05/20 08:55:26;;;;;;;5.10;4.60;;;;;;;20.46;65.30;98030.72;5073149;28;20238;-80
2023/05/20 08:57:54;;;;;;;6.77;4.97;;;;;;;20.51;66.61;98044.47;5073447;28;20773;-80
2023/05/20 09:00:25;;;;;;;5.10;4.63;;;;;;;20.55;66.43;98051.16;5072870;28;20211;-80
2023/05/20 09:02:53;;;;;;;5.87;5.30;;;;;;;20.53;65.10;98031.69;5073276;28;20207;-80
2023/05/20 09:05:21;;;;;;;6.10;5.43;;;;;;;20.42;64.90;98021.31;5072994;28;20212;-78
2023/05/20 09:07:49;;;;;;;5.90;5.30;;;;;;;20.73;65.95;98035.69;5072758;28;20213;-78
2023/05/20 09:10:16;;;;;;;5.00;4.50;;;;;;;20.87;65.58;98029.63;5073061;28;20586;-78
2023/05/20 09:12:42;;;;;;;5.17;4.77;;;;;;;20.94;65.08;98030.63;5072888;28;20214;-78
2023/05/20 09:15:09;;;;;;;6.13;5.30;;;;;;;20.90;62.07;98004.28;5073056;28;20617;-77
2023/05/20 09:17:36;;;;;;;5.10;4.50;;;;;;;20.57;63.16;98010.72;5073136;28;20207;-77
2023/05/20 09:20:07;;;;;;;6.07;5.37;;;;;;;20.52;64.02;98019.28;5087856;22;20231;-76
2023/05/20 09:22:34;;;;;;;5.20;4.70;;;;;;;20.30;63.59;98019.16;5074438;28;20207;-76
2023/05/20 09:25:02;;;;;;;5.90;5.30;;;;;;;20.35;65.83;98023.00;5075100;28;20210;-86
2023/05/20 09:27:28;;;;;;;5.20;4.70;;;;;;;20.27;63.57;98014.97;5075161;28;20207;-76
2023/05/20 09:29:55;;;;;;;6.03;5.43;;;;;;;20.42;66.23;98020.50;5073452;28;20238;-76
2023/05/20 09:32:27;;;;;;;5.93;5.33;;;;;;;20.53;65.14;98010.22;5075002;28;20218;-76
2023/05/20 09:34:53;;;;;;;5.50;5.00;;;;;;;20.73;68.31;98033.00;5076395;28;20235;-76
2023/05/20 09:37:22;;;;;;;5.33;4.83;;;;;;;21.02;65.88;98022.53;5073268;28;20222;-76
2023/05/20 09:39:56;;;;;;;6.33;5.47;;;;;;;21.11;64.72;98013.44;5073073;28;20736;-76
2023/05/20 09:42:27;;;;;;;5.23;4.73;;;;;;;21.16;62.20;97999.47;5072998;28;20206;-76
2023/05/20 09:44:55;;;;;;;5.70;5.20;;;;;;;21.17;62.64;98002.00;5075054;28;20206;-76
2023/05/20 09:47:23;;;;;;;5.43;4.90;;;;;;;21.05;62.71;98008.78;5085521;28;20207;-76
2023/05/20 09:49:51;;;;;;;5.33;4.83;;;;;;;21.21;64.66;98015.94;5084581;28;20299;-76
2023/05/20 09:52:19;;;;;;;5.60;5.10;;;;;;;21.37;62.95;97999.69;5080811;28;20212;-76
2023/05/20 09:54:46;;;;;;;5.47;4.87;;;;;;;21.38;59.58;97975.31;5074933;28;20708;-76
2023/05/20 09:57:12;;;;;;;5.57;5.07;;;;;;;21.38;58.41;97967.25;5072005;28;20208;-77
2023/05/20 09:59:41;;;;;;;6.90;5.83;;;;;;;21.35;58.20;97967.63;5071836;28;20241;-76
2023/05/20 10:02:08;;;;;;;5.83;5.00;;;;;;;21.22;58.69;97970.03;5072164;28;20269;-78
2023/05/20 10:04:37;;;;;;;5.87;5.30;;;;;;;21.07;57.41;97944.94;5071967;28;20207;-79
2023/05/20 10:07:28;;;;;;;6.20;5.47;;;;;;;20.86;57.22;97943.81;5072039;28;20215;-75
2023/05/20 10:10:03;;;;;;;6.73;5.27;;;;;;;20.90;62.65;97980.94;5071878;28;20231;-76
2023/05/20 10:12:37;;;;;;;5.97;5.37;;;;;;;21.21;59.23;97957.59;5071990;28;20592;-76
2023/05/20 10:15:16;;;;;;;6.10;5.50;;;;;;;21.11;58.04;97935.50;5072303;28;20291;-75
2023/05/20 10:17:53;;;;;;;6.13;5.53;;;;;;;20.65;57.92;97936.34;5072398;28;20195;-76
2023/05/20 10:20:20;;;;;;;5.53;5.03;;;;;;;20.46;61.87;97971.63;5071598;28;20250;-77
2023/05/20 10:22:56;;;;;;;6.60;5.90;;;;;;;20.40;63.36;97972.31;5071908;28;20253;-75
2023/05/20 10:25:26;;;;;;;6.03;5.37;;;;;;;20.66;63.49;97966.72;5072256;28;20266;-75
2023/05/20 10:27:52;;;;;;;5.70;5.00;;;;;;;21.03;60.61;97943.59;5072204;28;20207;-76
2023/05/20 10:30:22;;;;;;;5.47;4.97;;;;;;;21.50;60.85;97947.03;5071458;28;20223;-76
2023/05/20 10:32:51;;;;;;;6.23;5.63;;;;;;;21.66;57.11;97919.16;5072054;28;20211;-76
2023/05/20 10:35:22;;;;;;;6.07;5.47;;;;;;;21.72;56.30;97918.47;5071856;28;20227;-76
2023/05/20 10:37:48;;;;;;;5.97;5.40;;;;;;;21.67;56.84;97920.88;5072184;28;20598;-76
2023/05/20 10:40:18;;;;;;;5.47;4.97;;;;;;;21.63;60.34;97952.63;5072052;28;20231;-77
2023/05/20 10:42:44;;;;;;;7.43;5.30;;;;;;;21.81;62.84;97966.66;5072620;28;20218;-77
2023/05/20 10:45:11;;;;;;;7.47;5.50;;;;;;;22.01;60.34;97948.19;5072920;28;20611;-76
2023/05/20 10:47:54;;;;;;;5.50;4.93;;;;;;;22.11;60.91;97946.91;5071488;28;20616;-77
2023/05/20 10:50:28;;;;;;;5.00;4.53;;;;;;;22.36;60.77;97940.25;5071280;28;20862;-76
2023/05/20 10:52:56;;;;;;;5.63;5.07;;;;;;;22.45;59.20;97933.81;5071552;28;20599;-78
2023/05/20 10:55:23;;;;;;;5.27;4.50;;;;;;;22.48;59.49;97938.81;5071873;28;20227;-76
2023/05/20 10:57:49;;;;;;;5.97;4.93;;;;;;;22.55;53.71;97885.88;5071382;28;20204;-76
2023/05/20 11:00:17;;;;;;;5.03;4.63;;;;;;;22.52;53.87;97880.88;5070986;28;20235;-76
2023/05/20 11:02:45;;;;;;;5.40;4.77;;;;;;;22.50;58.17;97915.22;5071472;28;20356;-77
2023/05/20 11:05:13;;;;;;;4.73;4.23;;;;;;;22.51;56.92;97900.75;5071490;28;20562;-76
2023/05/20 11:07:40;;;;;;;5.03;4.57;;;;;;;22.48;52.86;97866.09;5070571;28;20203;-76
2023/05/20 11:10:08;;;;;;;5.00;4.50;;;;;;;22.62;56.00;97894.88;5070885;28;20227;-76
2023/05/20 11:12:35;;;;;;;5.43;4.87;;;;;;;22.81;56.42;97901.56;5067850;28;20440;-77
2023/05/20 11:15:02;;;;;;;5.53;4.80;;;;;;;22.60;57.67;97915.78;5070279;28;20235;-77
2023/05/20 11:17:29;;;;;;;5.50;5.00;;;;;;;22.58;52.82;97857.72;5070603;28;20218;-77
2023/05/20 11:19:59;;;;;;;5.10;4.70;;;;;;;22.45;51.57;97836.84;5069449;28;20513;-77
2023/05/20 11:22:26;;;;;;;5.50;5.00;;;;;;;22.17;56.98;97903.09;5071090;28;20519;-78
2023/05/20 11:24:52;;;;;;;4.77;4.37;;;;;;;22.15;57.98;97894.38;5071091;28;20218;-78
2023/05/20 11:27:19;;;;;;;4.57;4.17;;;;;;;22.30;54.42;97857.50;5071282;28;20685;-78
2023/05/20 11:29:49;;;;;;;4.60;4.20;;;;;;;22.58;54.96;97863.09;5070697;28;20223;-78
2023/05/20 11:32:19;;;;;;;6.33;4.97;;;;;;;22.55;57.69;97893.13;5070766;28;20211;-78